Time;durP1;ratioP1;P1;durP2;ratioP2;P2;SDS_P1;SDS_P2;PMS_P1;PMS_P2;Temp;Humidity;BMP_temperature;BMP_pressure;BME280_temperature;BME280_humidity;BME280_pressure;Samples;Min_cycle;Max_cycle;Signal;HPM_P1;HPM_P2
2023/04/01 00:00:52;;;;;;;5.70;1.10;;;;;;;9.85;74.87;97319.48;271927;1269;22373;-85
2023/04/01 00:06:53;;;;;;;4.90;1.30;;;;;;;9.83;75.13;97317.08;273757;1269;22357;-86
2023/04/01 00:12:54;;;;;;;4.20;1.50;;;;;;;9.83;75.24;97307.73;273786;1270;22455;-85
2023/04/01 00:18:56;;;;;;;3.80;1.20;;;;;;;9.84;75.30;97299.73;273888;1268;22531;-85
2023/04/01 00:24:56;;;;;;;3.00;1.10;;;;;;;9.83;75.48;97293.90;273724;1270;22974;-86
2023/04/01 00:30:58;;;;;;;3.20;1.10;;;;;;;9.78;75.75;97291.54;273898;1269;22342;-84
2023/04/01 00:37:00;;;;;;;5.90;1.20;;;;;;;9.77;75.78;97285.39;272363;1270;22331;-85
2023/04/01 00:43:02;;;;;;;3.90;1.50;;;;;;;9.76;76.00;97283.52;273154;1269;23144;-86
2023/04/01 00:49:05;;;;;;;8.40;1.70;;;;;;;9.75;76.18;97281.66;270477;1269;22539;-84
2023/04/01 00:55:07;;;;;;;3.40;1.10;;;;;;;9.69;76.52;97278.15;271070;1268;22600;-84
2023/04/01 01:01:09;;;;;;;5.60;1.20;;;;;;;9.62;76.81;97280.11;271225;1270;22185;-83
2023/04/01 01:07:26;;;;;;;9.30;1.60;;;;;;;9.53;77.07;97276.00;270728;1254;22339;-85
2023/04/01 01:13:50;;;;;;;5.40;1.60;;;;;;;9.46;77.39;97274.83;270714;1268;22424;-85
2023/04/01 01:20:24;;;;;;;4.00;1.10;;;;;;;9.44;77.90;97283.21;271379;1269;23151;-83
2023/04/01 01:26:38;;;;;;;4.40;1.40;;;;;;;9.45;78.22;97286.00;270545;1270;25413;-85
2023/04/01 01:32:48;;;;;;;6.20;2.00;;;;;;;9.47;78.30;97289.11;273461;1269;22486;-86
2023/04/01 01:38:51;;;;;;;11.70;2.00;;;;;;;9.46;78.58;97288.11;273914;1268;22541;-85
2023/04/01 01:44:53;;;;;;;5.80;1.30;;;;;;;9.44;78.81;97292.41;273683;1270;22214;-86
2023/04/01 01:50:55;;;;;;;4.30;1.50;;;;;;;9.44;78.85;97303.82;272628;1256;22667;-86
2023/04/01 01:57:15;;;;;;;4.90;1.50;;;;;;;9.47;78.93;97307.21;271712;1269;22311;-86
2023/04/01 02:03:29;;;;;;;5.90;2.00;;;;;;;9.46;79.19;97305.82;270908;1260;22351;-85
2023/04/01 02:09:30;;;;;;;5.40;1.80;;;;;;;9.40;79.11;97299.65;272255;1270;23205;-85
2023/04/01 02:15:33;;;;;;;8.60;2.10;;;;;;;9.36;79.27;97300.30;270135;1269;25412;-86
2023/04/01 02:21:35;;;;;;;19.00;3.90;;;;;;;9.34;79.15;97304.77;270635;1260;22527;-84
2023/04/01 02:28:19;;;;;;;11.10;2.70;;;;;;;9.31;79.33;97307.70;273376;1268;22309;-86
2023/04/01 02:34:54;;;;;;;8.40;2.60;;;;;;;9.28;79.53;97317.42;273105;1269;22306;-86
2023/04/01 02:41:00;;;;;;;8.10;2.90;;;;;;;9.23;79.67;97323.61;270568;1269;22587;-86
2023/04/01 02:47:01;;;;;;;7.30;3.00;;;;;;;9.19;79.92;97325.39;271051;1261;23291;-86
2023/04/01 02:53:03;;;;;;;5.80;2.10;;;;;;;9.14;80.33;97328.09;270745;1270;22577;-85
2023/04/01 02:59:07;;;;;;;10.50;2.40;;;;;;;9.11;80.67;97333.65;272323;1268;22231;-86
2023/04/01 03:05:08;;;;;;;9.50;2.40;;;;;;;9.16;80.87;97334.23;273833;1266;23602;-86
2023/04/01 03:11:10;;;;;;;9.00;2.90;;;;;;;9.23;80.84;97330.48;271311;1269;22524;-85
2023/04/01 03:17:11;;;;;;;7.30;2.30;;;;;;;9.26;81.07;97333.35;270556;1268;22525;-84
2023/04/01 03:23:12;;;;;;;7.20;1.50;;;;;;;9.27;81.22;97337.02;270682;1267;23836;-85
2023/04/01 03:29:15;;;;;;;5.10;1.90;;;;;;;9.26;81.19;97330.39;270450;1269;22549;-85
2023/04/01 03:35:17;;;;;;;6.80;1.90;;;;;;;9.24;81.31;97330.25;270203;1268;23382;-85
2023/04/01 03:41:20;;;;;;;5.30;1.80;;;;;;;9.24;81.51;97331.73;269771;1260;22642;-86
2023/04/01 03:47:21;;;;;;;6.40;1.60;;;;;;;9.23;81.56;97329.47;273493;1268;23297;-85
2023/04/01 03:53:22;;;;;;;4.70;1.50;;;;;;;9.23;81.59;97327.98;271106;1267;22588;-85
2023/04/01 03:59:24;;;;;;;8.60;1.90;;;;;;;9.24;81.76;97330.32;270438;1268;22561;-86
2023/04/01 04:05:26;;;;;;;5.60;2.00;;;;;;;9.25;81.78;97333.66;270026;1269;22547;-84
2023/04/01 04:11:31;;;;;;;10.60;2.50;;;;;;;9.24;82.00;97333.76;271075;1268;22249;-85
2023/04/01 04:17:32;;;;;;;10.10;2.80;;;;;;;9.23;81.97;97339.79;272473;1267;22343;-85
2023/04/01 04:23:33;;;;;;;8.30;2.80;;;;;;;9.23;82.07;97343.83;273663;1259;22481;-86
2023/04/01 04:29:34;;;;;;;8.70;2.40;;;;;;;9.26;82.20;97344.97;272958;1267;22475;-85
2023/04/01 04:35:56;;;;;;;13.10;3.10;;;;;;;9.27;82.38;97346.90;271460;1268;22538;-85
2023/04/01 04:42:00;;;;;;;13.30;2.70;;;;;;;9.27;82.61;97345.73;271023;1267;22604;-87
2023/04/01 04:48:01;;;;;;;10.80;2.60;;;;;;;9.29;82.64;97348.91;270743;1267;22345;-86
2023/04/01 04:54:12;;;;;;;11.50;3.20;;;;;;;9.31;82.62;97344.22;273843;1259;22470;-86
2023/04/01 05:01:07;;;;;;;7.20;2.80;;;;;;;9.31;82.87;97348.81;273933;1268;22520;-86
2023/04/01 05:07:09;;;;;;;6.40;2.90;;;;;;;9.38;83.02;97350.70;273727;1268;22209;-86
2023/04/01 05:13:10;;;;;;;5.10;1.80;;;;;;;9.46;83.15;97355.60;272720;1268;22446;-85
2023/04/01 05:19:21;;;;;;;8.00;1.60;;;;;;;9.50;83.53;97359.54;273835;1257;22673;-87
2023/04/01 05:25:22;;;;;;;6.00;1.70;;;;;;;9.50;83.89;97357.36;272454;1260;22615;-86
2023/04/01 05:31:24;;;;;;;8.60;3.00;;;;;;;9.50;84.12;97351.74;273946;1268;22411;-86
2023/04/01 05:37:34;;;;;;;4.10;1.70;;;;;;;9.55;84.13;97351.84;272567;1260;112996;-86
2023/04/01 05:43:37;;;;;;;2.20;1.00;;;;;;;9.69;84.70;97353.80;273723;1268;22405;-86
2023/04/01 05:49:47;;;;;;;5.30;1.20;;;;;;;9.87;84.53;97355.60;273665;1269;23464;-86
2023/04/01 05:55:49;;;;;;;5.40;1.40;;;;;;;10.02;84.43;97356.75;273549;1259;22790;-85
2023/04/01 06:01:50;;;;;;;3.10;1.20;;;;;;;10.20;84.31;97352.39;273081;1269;22540;-86
2023/04/01 06:08:37;;;;;;;7.00;1.60;;;;;;;10.36;83.95;97349.21;272701;1269;22348;-86
2023/04/01 06:15:33;;;;;;;7.60;2.10;;;;;;;10.50;84.05;97355.73;273821;1267;22341;-86
2023/04/01 06:22:14;;;;;;;2.50;1.10;;;;;;;10.57;83.69;97356.08;273105;1270;22857;-86
2023/04/01 06:28:32;;;;;;;2.50;1.30;;;;;;;10.65;83.56;97354.08;273926;1269;23527;-86
2023/04/01 06:35:12;;;;;;;5.30;1.70;;;;;;;10.84;83.58;97352.29;273722;1268;22407;-85
2023/04/01 06:41:58;;;;;;;6.20;1.60;;;;;;;11.26;83.80;97355.34;273216;1268;22407;-86
2023/04/01 06:48:59;;;;;;;4.10;1.60;;;;;;;11.87;82.83;97354.22;273137;1268;22884;-87
2023/04/01 06:56:21;;;;;;;5.50;1.70;;;;;;;12.08;81.26;97353.86;270438;1268;22572;-84
2023/04/01 07:03:26;;;;;;;6.90;2.10;;;;;;;11.90;80.58;97351.73;273719;1263;22423;-84
2023/04/01 07:10:01;;;;;;;8.20;2.80;;;;;;;11.95;80.89;97351.92;273925;1268;22262;-87
2023/04/01 07:16:37;;;;;;;8.80;2.20;;;;;;;12.24;80.08;97350.06;272445;1269;22614;-86
2023/04/01 07:22:48;;;;;;;5.30;1.50;;;;;;;12.28;79.51;97350.36;271136;1255;22346;-83
2023/04/01 07:29:11;;;;;;;3.90;1.30;;;;;;;12.51;79.02;97351.11;270670;1267;22326;-85
2023/04/01 07:35:41;;;;;;;3.60;1.60;;;;;;;12.70;78.27;97348.64;270715;1268;22536;-84
2023/04/01 07:42:23;;;;;;;3.40;1.60;;;;;;;12.84;78.04;97347.21;270449;1256;22649;-86
2023/04/01 07:49:11;;;;;;;4.20;1.80;;;;;;;13.15;77.44;97348.02;272947;1259;23163;-85
2023/04/01 07:55:18;;;;;;;6.00;1.80;;;;;;;13.08;75.63;97349.93;273810;1269;22419;-86
2023/04/01 08:01:23;;;;;;;5.90;1.70;;;;;;;12.88;75.89;97357.94;273925;1267;22290;-85
2023/04/01 08:08:18;;;;;;;3.60;1.40;;;;;;;12.85;75.80;97361.16;272992;1268;22530;-85
2023/04/01 08:15:33;;;;;;;2.90;1.20;;;;;;;13.14;75.32;97366.58;271644;1268;22198;-86
2023/04/01 08:21:53;;;;;;;4.00;1.30;;;;;;;13.35;74.45;97368.39;272800;1267;22402;-86
2023/04/01 08:28:08;;;;;;;3.90;1.20;;;;;;;13.43;73.50;97372.58;271067;1258;23469;-84
2023/04/01 08:34:15;;;;;;;3.20;1.50;;;;;;;13.54;73.38;97374.42;271457;1258;22524;-85
2023/04/01 08:41:15;;;;;;;5.30;1.30;;;;;;;13.99;73.10;97372.80;270464;1268;22525;-86
2023/04/01 08:47:47;;;;;;;5.00;1.40;;;;;;;14.73;71.51;97370.45;271324;1268;25405;-86
2023/04/01 08:54:11;;;;;;;5.50;1.50;;;;;;;14.73;70.28;97371.63;273613;1268;22213;-84
2023/04/01 09:00:31;;;;;;;2.70;1.10;;;;;;;14.83;70.89;97370.22;272914;1257;23305;-84
2023/04/01 09:07:06;;;;;;;2.20;1.10;;;;;;;15.68;69.88;97363.14;273744;1268;22175;-85
2023/04/01 09:13:30;;;;;;;4.00;1.40;;;;;;;15.65;68.02;97364.82;273504;1265;22438;-85
2023/04/01 09:19:44;;;;;;;4.90;1.70;;;;;;;15.45;67.89;97364.25;273741;1266;23253;-85
2023/04/01 09:26:20;;;;;;;2.50;1.30;;;;;;;15.22;67.49;97364.33;273927;1260;22317;-86
2023/04/01 09:32:50;;;;;;;3.10;1.40;;;;;;;15.26;67.47;97363.86;273888;1260;22535;-85
2023/04/01 09:38:59;;;;;;;2.80;1.40;;;;;;;15.35;66.38;97365.45;272244;1268;23104;-86
2023/04/01 09:45:30;;;;;;;3.40;1.30;;;;;;;14.80;66.21;97376.13;273776;1268;22287;-85
2023/04/01 09:51:57;;;;;;;4.20;1.60;;;;;;;14.29;66.80;97378.98;272678;1268;22477;-86
2023/04/01 09:58:37;;;;;;;;;;;;;;;13.92;67.18;97380.36;272923;1268;22487;-86
2023/04/01 10:05:38;;;;;;;3.10;1.40;;;;;;;13.66;67.56;97386.98;273253;1268;22204;-85
2023/04/01 10:12:02;;;;;;;2.50;1.20;;;;;;;13.63;68.17;97396.41;273642;1268;22459;-86
2023/04/01 10:18:20;;;;;;;3.90;1.70;;;;;;;13.55;68.32;97402.98;270641;1269;23238;-85
2023/04/01 10:24:33;;;;;;;4.00;2.00;;;;;;;13.48;68.47;97406.87;270445;1267;22994;-83
2023/04/01 10:31:03;;;;;;;2.80;1.70;;;;;;;13.34;68.52;97406.90;270448;1268;22521;-86
2023/04/01 10:37:32;;;;;;;2.90;1.50;;;;;;;13.12;68.55;97409.66;272372;1260;23393;-84
2023/04/01 10:44:13;;;;;;;4.70;1.90;;;;;;;13.02;69.31;97408.23;271905;1268;22186;-85
2023/04/01 10:50:40;;;;;;;6.50;2.30;;;;;;;13.49;69.63;97405.64;271074;1269;22218;-87
2023/04/01 10:57:38;;;;;;;3.20;1.60;;;;;;;14.78;70.14;97404.70;271668;1268;22518;-85
2023/04/01 11:04:27;;;;;;;3.50;1.50;;;;;;;15.52;67.26;97399.78;271269;1268;23463;-83
2023/04/01 11:11:14;;;;;;;4.10;1.70;;;;;;;15.65;66.49;97400.67;272768;1261;22237;-84
2023/04/01 11:17:19;;;;;;;4.00;1.80;;;;;;;16.13;66.20;97400.73;273260;1268;22429;-86
2023/04/01 11:23:29;;;;;;;2.30;1.20;;;;;;;16.37;64.76;97408.54;273568;1268;22284;-85
2023/04/01 11:30:03;;;;;;;2.70;1.40;;;;;;;16.25;63.75;97403.06;273487;1268;22354;-82
2023/04/01 11:36:15;;;;;;;3.30;1.10;;;;;;;16.33;63.84;97395.90;272771;1268;22458;-85
2023/04/01 11:42:22;;;;;;;1.80;1.00;;;;;;;16.84;62.17;97396.33;273682;1261;22407;-87
2023/04/01 11:49:50;;;;;;;3.10;1.70;;;;;;;16.26;61.68;97402.44;273451;1268;22331;-87
2023/04/01 11:55:59;;;;;;;3.70;1.80;;;;;;;15.11;62.59;97408.67;273070;1269;22211;-84
2023/04/01 12:02:19;;;;;;;3.60;1.70;;;;;;;14.47;63.53;97410.98;273770;1268;22452;-85
2023/04/01 12:08:53;;;;;;;4.30;1.60;;;;;;;14.90;64.26;97400.60;273810;1258;22401;-85
2023/04/01 12:15:13;;;;;;;5.10;1.40;;;;;;;15.23;63.46;97402.95;272193;1269;22224;-86
2023/04/01 12:21:58;;;;;;;2.80;1.50;;;;;;;15.06;63.31;97409.48;273348;1269;22387;-84
2023/04/01 12:28:25;;;;;;;5.50;1.80;;;;;;;14.91;63.91;97416.19;273691;1268;22580;-86
2023/04/01 12:34:41;;;;;;;6.30;2.30;;;;;;;15.07;64.29;97421.58;273691;1268;22560;-85
2023/04/01 12:40:55;;;;;;;3.00;1.80;;;;;;;15.05;63.54;97426.36;273179;1268;22541;-87
2023/04/01 12:47:18;;;;;;;5.00;2.10;;;;;;;14.66;63.82;97435.91;273600;1268;22431;-86
2023/04/01 12:53:58;;;;;;;3.90;2.10;;;;;;;14.08;64.97;97439.91;272194;1268;22328;-86
2023/04/01 13:00:26;;;;;;;4.70;2.80;;;;;;;13.60;66.72;97442.38;273084;1268;22242;-85
2023/04/01 13:07:02;;;;;;;6.30;3.50;;;;;;;13.35;68.59;97435.46;272551;1269;23376;-86
2023/04/01 13:13:10;;;;;;;7.00;4.00;;;;;;;13.21;69.96;97442.56;271911;1268;22202;-86
2023/04/01 13:19:45;;;;;;;4.50;2.80;;;;;;;13.28;71.01;97450.73;271199;1255;22533;-86
2023/04/01 13:26:05;;;;;;;8.90;2.50;;;;;;;13.33;71.08;97449.34;270368;1268;22812;-86
2023/04/01 13:32:40;;;;;;;4.10;1.50;;;;;;;13.15;71.46;97452.30;270747;1268;23620;-87
2023/04/01 13:39:11;;;;;;;4.30;1.90;;;;;;;12.96;72.00;97457.65;270546;1270;23697;-84
2023/04/01 13:45:17;;;;;;;5.80;2.40;;;;;;;12.61;73.55;97464.30;270219;1268;24198;-86
2023/04/01 13:51:52;;;;;;;3.70;2.40;;;;;;;12.34;75.51;97469.09;270821;1258;25565;-86
2023/04/01 13:58:11;;;;;;;5.70;2.10;;;;;;;12.35;76.60;97468.44;270479;1269;22836;-87
2023/04/01 14:04:45;;;;;;;6.20;2.70;;;;;;;12.34;76.91;97464.39;271093;1268;22324;-86
2023/04/01 14:11:27;;;;;;;3.40;2.00;;;;;;;12.35;77.25;97463.75;272495;1258;23575;-87
2023/04/01 14:18:20;;;;;;;4.00;2.30;;;;;;;12.22;77.04;97460.48;273596;1256;22401;-86
2023/04/01 14:25:01;;;;;;;4.10;2.20;;;;;;;12.03;77.89;97457.94;273416;1268;25284;-86
2023/04/01 14:31:31;;;;;;;4.80;2.70;;;;;;;11.96;78.49;97463.95;273705;1266;23093;-86
2023/04/01 14:37:55;;;;;;;8.10;3.80;;;;;;;11.87;78.59;97472.13;273872;1268;22478;-87
2023/04/01 14:44:19;;;;;;;9.60;4.60;;;;;;;11.76;80.32;97468.71;273955;1268;22402;-86
2023/04/01 14:50:24;;;;;;;12.00;6.30;;;;;;;11.96;82.29;97466.61;272551;1268;22322;-87
2023/04/01 14:56:56;;;;;;;17.70;9.60;;;;;;;12.20;82.17;97467.82;273176;1260;23353;-87
2023/04/01 15:03:23;;;;;;;13.40;7.80;;;;;;;12.29;82.32;97468.09;273919;1266;22206;-86
2023/04/01 15:09:58;;;;;;;9.80;5.00;;;;;;;12.31;82.58;97466.56;273556;1266;22205;-86
2023/04/01 15:16:30;;;;;;;4.20;3.00;;;;;;;12.35;82.01;97471.66;271375;1268;24248;-85
2023/04/01 15:22:50;;;;;;;7.40;2.70;;;;;;;12.29;81.43;97481.17;270965;1269;23692;-85
2023/04/01 15:29:28;;;;;;;5.00;2.70;;;;;;;12.15;81.18;97493.92;270391;1269;22593;-85
2023/04/01 15:35:58;;;;;;;6.10;3.20;;;;;;;11.89;80.82;97500.99;270878;1269;23271;-86
2023/04/01 15:42:28;;;;;;;6.40;3.70;;;;;;;11.68;81.38;97511.61;271367;1264;23161;-85
2023/04/01 15:48:45;;;;;;;10.50;5.40;;;;;;;11.60;82.24;97515.64;270971;1270;22646;-86
2023/04/01 15:55:21;;;;;;;8.10;4.50;;;;;;;11.50;83.04;97517.36;270276;1268;23159;-85
2023/04/01 16:01:32;;;;;;;9.90;5.10;;;;;;;11.42;83.89;97526.27;270652;1269;22551;-86
2023/04/01 16:08:06;;;;;;;10.70;5.00;;;;;;;11.33;84.51;97536.35;271603;1269;22547;-85
2023/04/01 16:14:22;;;;;;;9.40;5.10;;;;;;;11.19;85.08;97539.52;272668;1268;22361;-85
2023/04/01 16:20:45;;;;;;;10.50;6.10;;;;;;;11.04;86.27;97548.65;272716;1268;22223;-86
2023/04/01 16:26:50;;;;;;;9.00;4.50;;;;;;;10.82;87.14;97559.20;270840;1269;22564;-85
2023/04/01 16:32:57;;;;;;;9.80;4.30;;;;;;;10.55;87.41;97569.52;270796;1268;22520;-86
2023/04/01 16:39:40;;;;;;;7.70;4.10;;;;;;;10.36;87.87;97573.19;273664;1269;22397;-86
2023/04/01 16:46:15;;;;;;;6.00;3.60;;;;;;;10.18;88.01;97581.11;273890;1267;23646;-86
2023/04/01 16:52:44;;;;;;;8.10;4.80;;;;;;;10.03;87.93;97585.76;273919;1260;22457;-86
2023/04/01 16:58:57;;;;;;;6.70;4.10;;;;;;;9.83;88.32;97590.84;273322;1268;22441;-85
2023/04/01 17:05:43;;;;;;;6.50;4.20;;;;;;;9.78;89.91;97609.70;272691;1260;22452;-86
2023/04/01 17:12:05;;;;;;;6.10;4.70;;;;;;;9.80;90.50;97620.39;271967;1269;22287;-86
2023/04/01 17:18:47;;;;;;;8.10;5.70;;;;;;;9.75;90.87;97623.55;273671;1270;22340;-85
2023/04/01 17:25:13;;;;;;;10.90;6.90;;;;;;;9.70;91.14;97631.23;269812;1274;23020;-86
2023/04/01 17:32:01;;;;;;;22.80;8.10;;;;;;;9.66;92.00;97633.23;270463;1266;22649;-85
2023/04/01 17:38:48;;;;;;;12.30;8.10;;;;;;;9.62;91.80;97633.31;270929;1270;3811262;-86
2023/04/01 17:45:30;;;;;;;15.00;9.50;;;;;;;9.56;92.28;97641.41;273777;1269;22451;-86
2023/04/01 17:52:07;;;;;;;17.80;9.70;;;;;;;9.55;92.87;97648.13;272118;1269;22338;-85
2023/04/01 17:58:21;;;;;;;17.60;10.20;;;;;;;9.51;92.73;97652.44;271413;1254;23293;-85
2023/04/01 18:04:51;;;;;;;14.70;9.20;;;;;;;9.48;92.99;97662.14;270657;1257;22351;-86
2023/04/01 18:11:16;;;;;;;13.10;8.30;;;;;;;9.45;93.13;97668.55;273045;1268;23481;-84
2023/04/01 18:18:01;;;;;;;12.20;7.50;;;;;;;9.34;92.85;97675.64;273944;1267;23026;-85
2023/04/01 18:24:19;;;;;;;13.00;7.90;;;;;;;9.22;92.84;97681.08;273290;1269;22982;-85
2023/04/01 18:30:37;;;;;;;16.10;10.20;;;;;;;9.12;93.13;97686.59;273756;1268;22533;-86
2023/04/01 18:36:51;;;;;;;14.80;9.70;;;;;;;9.11;94.40;97699.60;271100;1253;23292;-85
2023/04/01 18:43:15;;;;;;;17.00;10.30;;;;;;;9.15;94.62;97701.78;270192;1268;24239;-85
2023/04/01 18:50:00;;;;;;;17.70;10.80;;;;;;;9.09;94.69;97711.08;270201;1271;23311;-85
2023/04/01 18:56:05;;;;;;;16.10;10.60;;;;;;;9.08;95.23;97715.14;270308;1271;23051;-86
2023/04/01 19:02:39;;;;;;;17.50;11.70;;;;;;;9.12;95.79;97716.45;270088;1272;22532;-85
2023/04/01 19:08:43;;;;;;;17.50;12.80;;;;;;;9.12;95.25;97723.09;272526;1271;22299;-86
2023/04/01 19:15:08;;;;;;;24.20;16.90;;;;;;;9.08;95.88;97732.38;270672;1271;22335;-86
2023/04/01 19:21:29;;;;;;;21.10;16.00;;;;;;;9.07;95.87;97740.27;271096;1267;22343;-84
2023/04/01 19:27:37;;;;;;;17.80;13.70;;;;;;;9.03;96.44;97743.64;272429;1261;22325;-85
2023/04/01 19:34:10;;;;;;;21.60;13.20;;;;;;;9.01;96.57;97746.05;273534;1268;22322;-85
2023/04/01 19:40:40;;;;;;;29.20;14.60;;;;;;;9.02;97.20;97757.67;273908;1257;22343;-85
2023/04/01 19:46:49;;;;;;;29.20;16.50;;;;;;;9.01;97.22;97760.08;273940;1267;22433;-85
2023/04/01 19:52:59;;;;;;;32.10;16.10;;;;;;;9.01;97.43;97772.72;273706;1268;23533;-85
2023/04/01 19:59:24;;;;;;;28.60;17.00;;;;;;;9.01;97.89;97778.02;273500;1269;22554;-84
2023/04/01 20:05:53;;;;;;;32.60;16.80;;;;;;;9.02;97.90;97784.64;273706;1260;22308;-85
2023/04/01 20:12:11;;;;;;;27.00;17.30;;;;;;;9.02;98.07;97795.64;273861;1268;23411;-85
2023/04/01 20:18:51;;;;;;;33.00;17.20;;;;;;;9.02;98.61;97799.55;273761;1269;22453;-85
2023/04/01 20:24:53;;;;;;;26.20;17.80;;;;;;;9.01;98.60;97802.84;273882;1268;22539;-84
2023/04/01 20:31:25;;;;;;;27.50;17.10;;;;;;;8.97;98.70;97809.08;273889;1268;22313;-85
2023/04/01 20:37:56;;;;;;;26.50;16.70;;;;;;;8.95;99.20;97810.48;265935;1268;10001700;-85
2023/04/01 20:44:12;;;;;;;21.30;15.40;;;;;;;8.95;99.40;97815.85;273546;1268;22312;-85
2023/04/01 20:50:35;;;;;;;27.50;17.40;;;;;;;8.94;99.47;97818.91;272262;1268;22524;-85
2023/04/01 20:57:13;;;;;;;30.40;18.60;;;;;;;8.93;99.65;97825.60;273595;1270;22220;-84
2023/04/01 21:03:25;;;;;;;35.00;19.70;;;;;;;8.91;99.93;97831.92;273341;1259;22222;-84
2023/04/01 21:09:55;;;;;;;26.30;16.40;;;;;;;8.90;100.00;97837.23;273617;1253;22664;-84
2023/04/01 21:16:31;;;;;;;24.10;16.10;;;;;;;8.88;100.00;97842.55;273820;1257;23257;-85
2023/04/01 21:23:00;;;;;;;28.10;15.70;;;;;;;8.86;100.00;97844.64;273804;1267;23638;-85
2023/04/01 21:29:49;;;;;;;25.10;15.40;;;;;;;8.82;100.00;97851.02;273778;1268;23348;-85
2023/04/01 21:36:12;;;;;;;27.20;15.70;;;;;;;8.79;100.00;97857.04;272594;1264;22396;-85
2023/04/01 21:42:19;;;;;;;22.50;14.40;;;;;;;8.79;100.00;97863.50;273773;1268;23513;-84
2023/04/01 21:48:59;;;;;;;17.40;11.30;;;;;;;8.79;100.00;97866.85;273814;1268;23724;-84
2023/04/01 21:55:52;;;;;;;20.60;13.60;;;;;;;8.81;100.00;97865.45;273907;1268;23141;-84
2023/04/01 22:01:56;;;;;;;21.50;14.00;;;;;;;8.81;100.00;97867.64;273520;1268;22951;-85
2023/04/01 22:08:30;;;;;;;23.20;15.10;;;;;;;8.80;100.00;97868.73;273860;1268;22793;-85
2023/04/01 22:15:17;;;;;;;27.40;16.50;;;;;;;8.78;100.00;97871.69;273279;1270;22329;-85
2023/04/01 22:21:22;;;;;;;32.90;17.50;;;;;;;8.78;100.00;97876.38;273857;1258;22335;-84
2023/04/01 22:27:49;;;;;;;26.30;16.90;;;;;;;8.79;100.00;97882.23;270736;1269;22576;-84
2023/04/01 22:34:06;;;;;;;27.00;18.50;;;;;;;8.78;100.00;97882.07;273562;1260;22532;-85
2023/04/01 22:40:36;;;;;;;25.60;17.30;;;;;;;8.77;100.00;97880.58;272048;1255;22552;-85
2023/04/01 22:47:01;;;;;;;27.40;16.50;;;;;;;8.74;100.00;97888.23;271225;1257;23708;-84
2023/04/01 22:53:35;;;;;;;26.10;16.50;;;;;;;8.73;100.00;97890.95;271188;1258;23750;-85
2023/04/01 22:59:36;;;;;;;26.40;17.20;;;;;;;8.73;100.00;97897.73;273061;1268;23401;-84
2023/04/01 23:05:58;;;;;;;26.10;16.20;;;;;;;8.73;100.00;97902.25;273815;1268;22522;-85
2023/04/01 23:12:03;;;;;;;25.90;17.60;;;;;;;8.70;100.00;97909.27;273657;1257;22393;-86
2023/04/01 23:18:49;;;;;;;27.70;17.40;;;;;;;8.68;100.00;97911.35;271919;1262;22536;-85
2023/04/01 23:25:33;;;;;;;28.60;16.80;;;;;;;8.65;100.00;97914.33;273913;1256;22202;-85
2023/04/01 23:31:39;;;;;;;28.60;17.50;;;;;;;8.64;100.00;97914.80;273678;1268;22412;-85
2023/04/01 23:37:40;;;;;;;32.60;19.90;;;;;;;8.62;100.00;97918.38;273753;1268;23672;-85
2023/04/01 23:43:42;;;;;;;30.70;19.00;;;;;;;8.58;100.00;97926.61;271774;1268;25407;-85
2023/04/01 23:49:57;;;;;;;31.30;19.30;;;;;;;8.57;100.00;97931.08;270727;1268;23010;-85
2023/04/01 23:55:58;;;;;;;31.60;19.70;;;;;;;8.56;100.00;97934.27;269997;1258;22677;-84
